Airfield :
LOGIN :

Register | Disclaimer

   EN    FR    IT 

 










Legend :    VFR   Marginal VFR   IFR   Intensive IFR   Very Intensive IFR
Visi :
Ceiling :
>= 8 km
>= 3000ft
5 to 8 km
1000 to 3000 ft
1500m to 5 km
500 to 1000 ft
800 to 1500m
200 to 500 ft
< 800m
< 200 ft
Symbols :   Thunderstorms  Fog  Heavy snow  Heavy precipitations  Wind > 20 kt
SIGMETs :     Misc.  Thunderstorms  Icing  Turbulence  Mountain Waves  Volcanic Ashes






- Airport Elevation : 256 ft
- IATA code : CFR


LFRK - Caen

CURRENT METAR :
  • 131030Z AUTO 29022KT 9999 FEW011 BKN046 BKN058 08/02 Q0988 TEMPO 28030G40KT 4000 SHRA BKN015TCU

EXPIRED METARs :
  • 131000Z AUTO 28018KT 9999 BKN047/// BKN140/// ///TCU 08/02 Q0988 TEMPO 28030G40KT 4000 SHRA
  • 130930Z AUTO 29025G39KT 9999 FEW047/// BKN092/// ///TCU 07/02 Q0987 TEMPO 4000 SHRA
  • 130900Z AUTO 29017KT 9999 FEW048/// ///TCU 07/02 Q0986 TEMPO 28030G40KT 4000 SHRA
  • 130830Z AUTO 29019KT 9999 SCT042 BKN052 BKN062 07/03 Q0986 TEMPO 28030G40KT 4000 SHRA BKN015TCU
  • 130800Z AUTO 27018KT 9999 BKN044 BKN050 BKN140 07/02 Q0985 TEMPO 28030G50KT 4000 SHRA BKN015TCU SCT020CB

TAF TAF LFRK
Valid from the 13 at 09:00 until the 13 at 18:00 UTC


130800Z 1309/1318 27020G30KT 9999 BKN030
TEMPO 1309/1315 28030G40KT 4000 SHRA BKN015TCU
BECMG 1316/1318 25012KT
Met : +33 2 31 26 68 11



MET'MAP, your aeronautical weather chart ! - Copyright ORBIFLY December 2007 - Disclaimer

ORBIFLY MET'MAP TEAM :

Programming & Development : Alexandra Zaïnal
Concept & original design : Baudouin d'Aumeries
Assistance for programming : Marc-Olivier Méhu
Technical & hardware support : Manuel Goepfert

Contact : metmap@orbifly.com




SOURCES & CREDITS :

   NOAA